Time;durP1;ratioP1;P1;durP2;ratioP2;P2;SDS_P1;SDS_P2;PMS_P1;PMS_P2;Temp;Humidity;BMP_temperature;BMP_pressure;BME280_temperature;BME280_humidity;BME280_pressure;Samples;Min_cycle;Max_cycle;Signal;HPM_P1;HPM_P2
2021/10/30 00:00:42;;;;;;;;;;;;;;;8.32;86.64;100682.97;5035542;28;1943;-59
2021/10/30 00:03:08;;;;;;;;;;;;;;;8.31;86.03;100686.06;5053513;28;960;-60
2021/10/30 00:05:35;;;;;;;;;;;;;;;8.29;86.39;100682.88;5053425;28;877;-59
2021/10/30 00:08:01;;;;;;;;;;;;;;;8.30;86.42;100687.22;5053442;28;851;-59
2021/10/30 00:10:29;;;;;;;;;;;;;;;8.25;86.33;100682.03;5053383;28;842;-60
2021/10/30 00:12:55;;;;;;;;;;;;;;;8.25;86.56;100682.81;5053229;28;816;-60
2021/10/30 00:15:22;;;;;;;;;;;;;;;8.22;86.55;100680.00;5053312;28;935;-60
2021/10/30 00:17:48;;;;;;;;;;;;;;;8.21;86.74;100689.41;5053359;28;939;-59
2021/10/30 00:20:15;;;;;;;;;;;;;;;8.17;86.30;100686.59;5053025;28;1137;-60
2021/10/30 00:22:41;;;;;;;;;;;;;;;8.08;86.17;100686.03;5053077;28;1969;-60
2021/10/30 00:25:11;;;;;;;;;;;;;;;8.06;87.32;100682.84;5053077;28;826;-60
2021/10/30 00:27:38;;;;;;;;;;;;;;;8.08;87.34;100686.81;5053133;28;815;-60
2021/10/30 00:30:05;;;;;;;;;;;;;;;8.15;87.10;100680.66;5052923;28;869;-59
2021/10/30 00:32:32;;;;;;;;;;;;;;;8.12;86.70;100673.13;5053151;28;859;-60
2021/10/30 00:34:58;;;;;;;;;;;;;;;8.06;87.21;100671.84;5052962;28;795;-60
2021/10/30 00:37:24;;;;;;;;;;;;;;;8.02;87.27;100668.22;5052876;28;807;-60
2021/10/30 00:39:52;;;;;;;;;;;;;;;8.01;86.97;100661.91;5052758;28;862;-60
2021/10/30 00:42:18;;;;;;;;;;;;;;;7.99;87.10;100667.00;5052880;28;1894;-60
2021/10/30 00:44:45;;;;;;;;;;;;;;;8.00;87.58;100656.75;5052647;28;807;-60
2021/10/30 00:47:13;;;;;;;;;;;;;;;8.00;87.85;100643.00;5052604;28;885;-59
2021/10/30 00:49:43;;;;;;;;;;;;;;;7.99;87.54;100642.22;5052662;28;870;-60
2021/10/30 00:52:10;;;;;;;;;;;;;;;7.97;87.08;100648.06;5052471;28;866;-59
2021/10/30 00:54:37;;;;;;;;;;;;;;;7.92;87.36;100644.84;5034551;28;1364;-60
2021/10/30 00:57:05;;;;;;;;;;;;;;;7.93;87.76;100654.69;5052364;28;1232;-60
2021/10/30 00:59:31;;;;;;;;;;;;;;;7.96;87.55;100653.97;5052239;28;870;-60
2021/10/30 01:01:58;;;;;;;;;;;;;;;7.96;87.41;100654.75;5052258;28;1890;-60
2021/10/30 01:04:25;;;;;;;;;;;;;;;8.00;87.72;100657.59;5052344;28;799;-60
2021/10/30 01:06:52;;;;;;;;;;;;;;;8.02;87.69;100643.44;5052174;28;843;-60
2021/10/30 01:09:20;;;;;;;;;;;;;;;8.01;87.84;100645.41;5052176;28;807;-59
2021/10/30 01:11:47;;;;;;;;;;;;;;;8.01;87.65;100650.13;5052178;28;850;-60
2021/10/30 01:14:14;;;;;;;;;;;;;;;8.01;87.74;100644.59;5052136;28;867;-60
2021/10/30 01:16:41;;;;;;;;;;;;;;;8.03;87.68;100642.28;5052050;28;861;-60
2021/10/30 01:19:07;;;;;;;;;;;;;;;8.05;87.70;100639.97;5052050;28;1355;-60
2021/10/30 01:21:35;;;;;;;;;;;;;;;8.13;88.14;100636.97;5051922;28;1969;-60
2021/10/30 01:24:03;;;;;;;;;;;;;;;8.22;87.90;100646.97;5052144;28;862;-59
2021/10/30 01:26:30;;;;;;;;;;;;;;;8.23;87.71;100645.78;5051963;28;862;-60
2021/10/30 01:28:59;;;;;;;;;;;;;;;8.22;87.76;100649.72;5051811;28;873;-60
2021/10/30 01:31:26;;;;;;;;;;;;;;;8.19;87.85;100651.22;5052001;28;910;-60
2021/10/30 01:33:52;;;;;;;;;;;;;;;8.15;87.44;100653.94;5052070;28;823;-60
2021/10/30 01:36:21;;;;;;;;;;;;;;;8.20;87.85;100652.84;5052559;28;755;-60
2021/10/30 01:38:48;;;;;;;;;;;;;;;8.20;87.45;100658.34;5051802;28;893;-60
2021/10/30 01:41:14;;;;;;;;;;;;;;;8.21;87.71;100651.66;5052129;28;1882;-60
2021/10/30 01:43:43;;;;;;;;;;;;;;;8.21;87.84;100654.41;5051961;28;923;-59
2021/10/30 01:46:10;;;;;;;;;;;;;;;8.24;87.86;100650.16;5051648;28;862;-59
2021/10/30 01:48:37;;;;;;;;;;;;;;;8.20;87.51;100655.59;5051750;28;897;-60
2021/10/30 01:51:05;;;;;;;;;;;;;;;8.13;87.21;100647.22;5051560;28;790;-60
2021/10/30 01:53:32;;;;;;;;;;;;;;;8.08;87.56;100659.28;5051620;28;831;-60
2021/10/30 01:55:58;;;;;;;;;;;;;;;8.09;87.96;100657.34;5051546;28;912;-60
2021/10/30 01:58:25;;;;;;;;;;;;;;;8.07;87.68;100659.69;5051535;28;928;-59
2021/10/30 02:00:52;;;;;;;;;;;;;;;8.07;87.86;100667.94;5051429;28;1950;-60
2021/10/30 02:03:20;;;;;;;;;;;;;;;8.04;88.34;100663.13;5051522;28;834;-60
2021/10/30 02:05:46;;;;;;;;;;;;;;;7.97;87.80;100672.84;5050780;28;859;-60
2021/10/30 02:08:13;;;;;;;;;;;;;;;7.86;87.69;100671.06;5051430;28;823;-60
2021/10/30 02:10:40;;;;;;;;;;;;;;;7.83;88.97;100671.78;5051420;28;874;-60
2021/10/30 02:13:06;;;;;;;;;;;;;;;7.86;88.37;100674.59;5051335;28;791;-60
2021/10/30 02:15:33;;;;;;;;;;;;;;;7.87;88.78;100667.13;5051518;28;842;-60
2021/10/30 02:17:59;;;;;;;;;;;;;;;7.89;88.60;100671.13;5051665;28;1037;-60
2021/10/30 02:20:26;;;;;;;;;;;;;;;7.87;88.17;100667.94;5051414;28;1272;-60
2021/10/30 02:22:53;;;;;;;;;;;;;;;7.81;88.70;100663.91;5051405;28;1975;-60
2021/10/30 02:25:22;;;;;;;;;;;;;;;7.81;88.52;100665.81;5051581;28;783;-60
2021/10/30 02:27:50;;;;;;;;;;;;;;;7.80;89.25;100665.03;5051117;28;858;-60
2021/10/30 02:30:16;;;;;;;;;;;;;;;7.82;88.30;100661.94;5051360;28;827;-60
2021/10/30 02:32:43;;;;;;;;;;;;;;;7.73;88.88;100662.94;5051159;28;819;-60
2021/10/30 02:35:10;;;;;;;;;;;;;;;7.67;88.84;100655.34;5051108;28;859;-60
2021/10/30 02:37:36;;;;;;;;;;;;;;;7.61;89.04;100657.56;5051142;28;870;-60
2021/10/30 02:40:03;;;;;;;;;;;;;;;7.57;88.92;100660.28;5051316;28;950;-60
2021/10/30 02:42:29;;;;;;;;;;;;;;;7.50;89.11;100659.31;5051184;28;1952;-60
2021/10/30 02:44:55;;;;;;;;;;;;;;;7.45;89.03;100657.66;5051211;28;831;-60
2021/10/30 02:47:22;;;;;;;;;;;;;;;7.40;89.00;100657.91;5051440;28;791;-60
2021/10/30 02:49:49;;;;;;;;;;;;;;;7.36;89.51;100665.28;5051063;28;1189;-60
2021/10/30 02:52:15;;;;;;;;;;;;;;;7.38;89.46;100662.19;5051647;28;842;-59
2021/10/30 02:54:42;;;;;;;;;;;;;;;7.36;90.08;100660.59;5050873;28;922;-60
2021/10/30 02:57:08;;;;;;;;;;;;;;;7.33;89.69;100663.28;5051087;28;815;-59
2021/10/30 02:59:35;;;;;;;;;;;;;;;7.29;89.48;100667.91;5050890;28;858;-60
2021/10/30 03:02:02;;;;;;;;;;;;;;;7.26;89.55;100671.38;5050868;28;1894;-60
2021/10/30 03:04:28;;;;;;;;;;;;;;;7.22;90.11;100670.50;5050832;28;799;-60
2021/10/30 03:06:55;;;;;;;;;;;;;;;7.26;90.18;100668.63;5050877;28;873;-60
2021/10/30 03:09:21;;;;;;;;;;;;;;;7.22;89.83;100671.28;5050829;28;917;-60
2021/10/30 03:11:47;;;;;;;;;;;;;;;7.19;89.98;100679.44;5050831;28;882;-60
2021/10/30 03:14:14;;;;;;;;;;;;;;;7.18;90.30;100673.16;5050726;28;874;-60
2021/10/30 03:16:41;;;;;;;;;;;;;;;7.22;90.49;100670.50;5051959;28;807;-60
2021/10/30 03:19:07;;;;;;;;;;;;;;;7.21;90.55;100672.47;5054337;28;1190;-60
2021/10/30 03:21:33;;;;;;;;;;;;;;;7.22;90.11;100681.50;5054226;28;1981;-60
2021/10/30 03:23:59;;;;;;;;;;;;;;;7.19;89.58;100674.75;5054320;28;885;-60
2021/10/30 03:26:26;;;;;;;;;;;;;;;7.14;90.04;100675.03;5054154;28;834;-60
2021/10/30 03:28:52;;;;;;;;;;;;;;;7.08;90.55;100681.94;5054155;28;921;-60
2021/10/30 03:31:19;;;;;;;;;;;;;;;7.02;90.15;100684.19;5054145;28;934;-60
2021/10/30 03:33:46;;;;;;;;;;;;;;;6.96;89.94;100682.88;5054016;28;847;-60
2021/10/30 03:36:12;;;;;;;;;;;;;;;7.06;90.36;100692.50;5054292;28;818;-60
2021/10/30 03:38:38;;;;;;;;;;;;;;;7.06;91.30;100684.25;5054022;28;905;-60
2021/10/30 03:41:05;;;;;;;;;;;;;;;7.03;90.94;100680.28;5053962;28;1894;-60
2021/10/30 03:43:31;;;;;;;;;;;;;;;7.10;91.02;100679.63;5053963;28;814;-60
2021/10/30 03:45:58;;;;;;;;;;;;;;;7.18;91.61;100683.38;5053950;28;810;-60
2021/10/30 03:48:25;;;;;;;;;;;;;;;7.25;90.86;100683.50;5053727;28;918;-60
2021/10/30 03:50:51;;;;;;;;;;;;;;;7.24;91.47;100687.44;5053829;28;854;-60
2021/10/30 03:53:19;;;;;;;;;;;;;;;7.33;91.14;100680.56;5053717;28;810;-60
2021/10/30 03:55:46;;;;;;;;;;;;;;;7.40;91.42;100671.66;5053594;28;901;-60
2021/10/30 03:58:12;;;;;;;;;;;;;;;7.43;90.93;100670.97;5053720;28;822;-60
2021/10/30 04:00:39;;;;;;;;;;;;;;;7.47;90.30;100665.56;5053505;28;1955;-60
2021/10/30 04:03:06;;;;;;;;;;;;;;;7.50;90.55;100667.56;5053558;28;850;-60
2021/10/30 04:05:31;;;;;;;;;;;;;;;7.49;90.40;100666.78;5053521;28;807;-60
2021/10/30 04:07:58;;;;;;;;;;;;;;;7.48;89.85;100673.41;5053410;28;958;-60
2021/10/30 04:10:24;;;;;;;;;;;;;;;7.50;90.11;100675.81;5035548;28;898;-60
2021/10/30 04:12:51;;;;;;;;;;;;;;;7.51;90.37;100671.91;5053592;28;906;-60
2021/10/30 04:15:18;;;;;;;;;;;;;;;7.55;89.74;100672.78;5053271;28;1076;-60
2021/10/30 04:17:45;;;;;;;;;;;;;;;7.60;90.24;100672.50;5053434;28;1047;-60
2021/10/30 04:20:12;;;;;;;;;;;;;;;7.70;89.93;100674.69;5053052;28;1265;-60
2021/10/30 04:22:38;;;;;;;;;;;;;;;7.81;89.29;100674.91;5053076;28;1917;-60
2021/10/30 04:25:05;;;;;;;;;;;;;;;7.84;88.86;100668.66;5052913;28;847;-60
2021/10/30 04:27:32;;;;;;;;;;;;;;;7.86;88.88;100680.09;5052658;28;1028;-60
2021/10/30 04:29:59;;;;;;;;;;;;;;;7.87;89.01;100667.13;5053012;28;877;-60
2021/10/30 04:32:25;;;;;;;;;;;;;;;7.89;89.42;100673.88;5053020;28;882;-60
2021/10/30 04:35:03;;;;;;;;;;;;;;;7.92;89.01;100672.38;5052984;28;826;-60
2021/10/30 04:37:30;;;;;;;;;;;;;;;7.95;89.44;100666.13;5052893;28;842;-60
2021/10/30 04:39:57;;;;;;;;;;;;;;;8.01;89.00;100664.66;5052901;28;791;-60
2021/10/30 04:42:23;;;;;;;;;;;;;;;8.03;88.39;100672.56;5052719;28;1947;-60
2021/10/30 04:44:51;;;;;;;;;;;;;;;8.07;88.19;100673.44;5052758;28;846;-60
2021/10/30 04:47:17;;;;;;;;;;;;;;;8.04;87.95;100666.69;5052709;28;811;-60
2021/10/30 04:49:44;;;;;;;;;;;;;;;8.11;87.96;100666.03;5052724;28;929;-60
2021/10/30 04:52:11;;;;;;;;;;;;;;;8.13;87.25;100674.75;5052735;28;874;-60
2021/10/30 04:54:38;;;;;;;;;;;;;;;8.08;87.70;100672.25;5052435;28;870;-60
2021/10/30 04:57:05;;;;;;;;;;;;;;;8.06;87.80;100674.59;5052504;28;783;-60
2021/10/30 04:59:32;;;;;;;;;;;;;;;8.12;88.19;100678.63;5034538;28;1371;-60
2021/10/30 05:01:58;;;;;;;;;;;;;;;8.15;87.55;100662.19;5052431;28;1893;-60
2021/10/30 05:04:25;;;;;;;;;;;;;;;8.17;87.74;100668.13;5052320;28;811;-59
2021/10/30 05:06:51;;;;;;;;;;;;;;;8.24;87.72;100677.69;5052329;28;846;-60
2021/10/30 05:09:19;;;;;;;;;;;;;;;8.45;87.50;100674.53;5052562;28;799;-60
2021/10/30 05:19:25;;;;;;;;;;;;;;;8.97;84.50;100670.28;5029156;28;1746;-59
2021/10/30 05:21:52;;;;;;;;;;;;;;;8.94;84.44;100669.06;5032320;28;1915;-59
2021/10/30 05:24:18;;;;;;;;;;;;;;;8.93;84.67;100683.22;5032371;28;941;-59
2021/10/30 05:26:45;;;;;;;;;;;;;;;9.00;84.71;100675.06;5032216;28;1260;-59
2021/10/30 05:29:11;;;;;;;;;;;;;;;9.14;84.37;100683.56;5032033;28;869;-59
2021/10/30 05:31:37;;;;;;;;;;;;;;;9.23;83.57;100682.50;5032321;28;818;-59
2021/10/30 05:34:04;;;;;;;;;;;;;;;9.35;83.66;100683.06;5014192;28;1321;-59
2021/10/30 05:36:33;;;;;;;;;;;;;;;9.49;82.85;100682.47;5031861;28;846;-59
2021/10/30 05:39:00;;;;;;;;;;;;;;;9.66;82.57;100686.63;5031616;28;822;-59
2021/10/30 05:41:27;;;;;;;;;;;;;;;9.78;82.18;100680.09;5032132;28;1886;-59
2021/10/30 05:43:53;;;;;;;;;;;;;;;9.84;81.65;100684.09;5014480;28;1443;-59
2021/10/30 05:46:20;;;;;;;;;;;;;;;9.91;81.65;100683.38;5014068;28;2370;-59
2021/10/30 05:48:46;;;;;;;;;;;;;;;9.92;81.50;100696.84;5031615;28;825;-59
2021/10/30 05:51:13;;;;;;;;;;;;;;;9.92;81.42;100685.78;5031757;28;826;-59
2021/10/30 05:53:39;;;;;;;;;;;;;;;10.02;81.57;100682.31;5031682;28;835;-60
2021/10/30 05:56:06;;;;;;;;;;;;;;;10.08;80.82;100690.28;5013878;28;1292;-59
2021/10/30 05:58:32;;;;;;;;;;;;;;;10.33;79.70;100693.38;5031630;28;866;-59
2021/10/30 06:00:58;;;;;;;;;;;;;;;10.42;79.52;100699.38;5031583;28;1890;-59
2021/10/30 06:03:25;;;;;;;;;;;;;;;10.50;79.27;100689.97;5031520;28;924;-59
2021/10/30 06:05:51;;;;;;;;;;;;;;;10.54;78.99;100699.09;5031610;28;810;-60
2021/10/30 06:08:18;;;;;;;;;;;;;;;10.63;78.98;100696.03;5031790;28;811;-60
2021/10/30 06:10:44;;;;;;;;;;;;;;;10.94;79.04;100686.38;5031531;28;810;-60
2021/10/30 06:13:11;;;;;;;;;;;;;;;11.92;76.03;100677.47;5031569;28;815;-60
2021/10/30 06:15:37;;;;;;;;;;;;;;;12.29;72.99;100678.38;5031433;28;790;-60
2021/10/30 06:18:04;;;;;;;;;;;;;;;12.40;71.57;100684.75;5031231;28;1211;-60
2021/10/30 06:20:31;;;;;;;;;;;;;;;12.62;71.08;100688.31;5031427;28;826;-60
2021/10/30 06:22:58;;;;;;;;;;;;;;;12.87;70.36;100688.34;5031678;28;1995;-60
2021/10/30 06:25:25;;;;;;;;;;;;;;;13.06;69.32;100687.94;5031247;28;871;-60
2021/10/30 06:27:51;;;;;;;;;;;;;;;13.48;67.97;100689.09;5031421;28;802;-60
2021/10/30 06:30:18;;;;;;;;;;;;;;;14.08;66.46;100690.03;5031517;28;795;-60
2021/10/30 06:32:45;;;;;;;;;;;;;;;14.28;65.71;100695.09;5031272;28;881;-60
2021/10/30 06:35:12;;;;;;;;;;;;;;;14.30;65.35;100696.25;5031305;28;826;-60
2021/10/30 06:37:39;;;;;;;;;;;;;;;13.96;66.87;100703.59;5031285;28;862;-60
2021/10/30 06:40:07;;;;;;;;;;;;;;;13.64;67.09;100691.41;5031149;28;927;-60
2021/10/30 06:42:34;;;;;;;;;;;;;;;13.67;67.30;100704.47;5031152;28;1939;-60
2021/10/30 06:45:01;;;;;;;;;;;;;;;14.43;65.49;100702.16;5031223;28;863;-60
2021/10/30 06:47:27;;;;;;;;;;;;;;;15.29;63.64;100695.13;5031082;28;856;-60
2021/10/30 06:49:57;;;;;;;;;;;;;;;15.83;60.76;100703.72;5031162;28;779;-60
2021/10/30 06:52:24;;;;;;;;;;;;;;;15.81;61.03;100694.16;5034932;28;1014;-60
2021/10/30 06:54:51;;;;;;;;;;;;;;;15.83;60.82;100686.19;5033548;28;1180;-60
2021/10/30 06:57:17;;;;;;;;;;;;;;;15.97;60.52;100680.44;5034876;28;873;-60
2021/10/30 06:59:43;;;;;;;;;;;;;;;15.53;61.38;100682.13;5034816;28;803;-60
2021/10/30 07:02:11;;;;;;;;;;;;;;;15.35;61.65;100682.31;5035039;28;1943;-60
2021/10/30 07:04:37;;;;;;;;;;;;;;;15.04;62.97;100690.59;5034696;28;791;-60
2021/10/30 07:07:04;;;;;;;;;;;;;;;15.06;63.11;100690.16;5034714;28;846;-60
2021/10/30 07:09:31;;;;;;;;;;;;;;;14.57;63.91;100687.38;5034578;28;827;-60
2021/10/30 07:11:57;;;;;;;;;;;;;;;14.12;65.51;100692.78;5034703;28;794;-60
2021/10/30 07:14:24;;;;;;;;;;;;;;;14.65;64.95;100702.03;5034629;28;884;-60
2021/10/30 07:16:49;;;;;;;;;;;;;;;14.88;63.25;100699.47;5034702;28;814;-60
2021/10/30 07:19:16;;;;;;;;;;;;;;;15.10;62.64;100699.28;5034340;28;1187;-60
2021/10/30 07:21:42;;;;;;;;;;;;;;;15.19;62.44;100699.59;5034407;28;1922;-60
2021/10/30 07:24:09;;;;;;;;;;;;;;;15.11;62.44;100703.66;5034350;28;814;-60
2021/10/30 07:26:36;;;;;;;;;;;;;;;14.55;63.59;100688.94;5034414;28;841;-60
2021/10/30 07:29:03;;;;;;;;;;;;;;;13.64;67.14;100685.84;5034312;28;842;-60
2021/10/30 07:31:29;;;;;;;;;;;;;;;13.39;68.98;100690.69;5034266;28;830;-60
2021/10/30 07:33:56;;;;;;;;;;;;;;;14.40;66.10;100689.06;5034293;28;854;-60
2021/10/30 07:36:22;;;;;;;;;;;;;;;15.26;63.13;100696.72;5034080;28;1165;-60
2021/10/30 07:38:49;;;;;;;;;;;;;;;15.63;61.57;100697.16;5034163;28;823;-60
2021/10/30 07:41:16;;;;;;;;;;;;;;;15.62;61.19;100692.75;5034047;28;1889;-60
2021/10/30 07:43:43;;;;;;;;;;;;;;;14.78;63.37;100697.53;5034072;28;934;-61
2021/10/30 07:46:09;;;;;;;;;;;;;;;14.80;63.85;100697.94;5033865;28;798;-61
2021/10/30 07:48:38;;;;;;;;;;;;;;;15.03;62.83;100699.34;5033974;28;850;-60
2021/10/30 07:51:04;;;;;;;;;;;;;;;15.18;62.86;100698.00;5033818;28;837;-60
2021/10/30 07:53:30;;;;;;;;;;;;;;;15.73;60.76;100693.47;5033819;28;957;-60
2021/10/30 07:55:57;;;;;;;;;;;;;;;16.13;59.97;100688.97;5033736;28;795;-60
2021/10/30 07:58:23;;;;;;;;;;;;;;;16.82;58.89;100688.00;5033731;28;858;-60
2021/10/30 08:00:50;;;;;;;;;;;;;;;17.46;56.01;100686.06;5033699;28;1949;-61
2021/10/30 08:03:16;;;;;;;;;;;;;;;16.98;56.52;100681.72;5032805;28;876;-60
2021/10/30 08:05:43;;;;;;;;;;;;;;;16.05;59.20;100686.72;5033698;28;870;-60
2021/10/30 08:08:09;;;;;;;;;;;;;;;15.26;61.20;100693.94;5033588;28;811;-60
2021/10/30 08:10:36;;;;;;;;;;;;;;;14.61;63.11;100690.91;5033574;28;886;-60
2021/10/30 08:13:07;;;;;;;;;;;;;;;14.27;64.65;100696.28;5033618;28;865;-60
2021/10/30 08:15:33;;;;;;;;;;;;;;;14.13;65.27;100691.59;5033303;28;1040;-60
2021/10/30 08:18:00;;;;;;;;;;;;;;;13.91;66.00;100696.44;5033222;28;1179;-60
2021/10/30 08:20:27;;;;;;;;;;;;;;;13.66;66.86;100694.56;5033358;28;970;-60
2021/10/30 08:22:53;;;;;;;;;;;;;;;13.54;67.42;100695.00;5033211;28;1914;-60
2021/10/30 08:25:20;;;;;;;;;;;;;;;13.55;67.70;100690.22;5033225;28;848;-60
2021/10/30 08:27:47;;;;;;;;;;;;;;;13.53;68.21;100696.22;5033365;28;795;-60
2021/10/30 08:30:13;;;;;;;;;;;;;;;13.26;69.21;100696.63;5033152;28;834;-60
2021/10/30 08:32:40;;;;;;;;;;;;;;;13.37;69.05;100691.06;5015296;28;1299;-60
2021/10/30 08:35:07;;;;;;;;;;;;;;;13.53;68.85;100693.44;5033040;28;846;-60
2021/10/30 08:37:33;;;;;;;;;;;;;;;13.65;68.54;100681.88;5033003;28;865;-60
2021/10/30 08:39:59;;;;;;;;;;;;;;;13.73;68.32;100688.19;5032845;28;859;-60
2021/10/30 08:42:26;;;;;;;;;;;;;;;13.95;67.74;100686.13;5033175;28;1890;-60
2021/10/30 08:44:53;;;;;;;;;;;;;;;14.26;67.18;100695.50;5032960;28;853;-60
2021/10/30 08:47:20;;;;;;;;;;;;;;;14.27;66.45;100685.97;5032908;28;926;-60
2021/10/30 08:49:47;;;;;;;;;;;;;;;14.12;66.85;100692.00;5032935;28;810;-60
2021/10/30 08:52:14;;;;;;;;;;;;;;;13.83;67.29;100681.81;5032929;28;886;-60
2021/10/30 08:54:40;;;;;;;;;;;;;;;13.67;67.89;100679.47;5015238;28;812;-60
2021/10/30 08:57:06;;;;;;;;;;;;;;;13.63;68.28;100687.06;5033087;28;807;-60
2021/10/30 08:59:46;;;;;;;;;;;;;;;13.66;68.24;100683.47;5033351;28;768;-60
2021/10/30 09:02:31;;;;;;;;;;;;;;;13.82;68.35;100688.56;5032442;28;1890;-60
2021/10/30 09:05:16;;;;;;;;;;;;;;;14.14;67.44;100695.16;5032524;28;885;-60
2021/10/30 09:07:43;;;;;;;;;;;;;;;14.67;66.05;100691.28;5032408;28;817;-60
2021/10/30 09:10:30;;;;;;;;;;;;;;;14.92;65.46;100685.53;5032420;28;794;-60
2021/10/30 09:12:58;;;;;;;;;;;;;;;15.42;64.71;100685.03;5032202;28;1875;-60
2021/10/30 09:15:36;;;;;;;;;;;;;;;15.65;63.29;100684.38;5032212;28;830;-60
2021/10/30 09:18:04;;;;;;;;;;;;;;;15.68;62.67;100675.19;5032081;28;1206;-60
2021/10/30 09:20:36;;;;;;;;;;;;;;;15.86;62.95;100669.41;5032252;28;819;-60
2021/10/30 09:23:07;;;;;;;;;;;;;;;16.04;62.39;100668.38;5032145;28;1961;-60
2021/10/30 09:25:34;;;;;;;;;;;;;;;16.24;61.79;100671.31;5032290;28;890;-60
2021/10/30 09:28:01;;;;;;;;;;;;;;;16.29;61.25;100660.47;5032070;28;866;-60
2021/10/30 09:30:28;;;;;;;;;;;;;;;16.17;59.33;100666.59;5031957;28;934;-60
2021/10/30 09:32:55;;;;;;;;;;;;;;;15.90;59.95;100664.59;5032034;28;843;-60
2021/10/30 09:35:23;;;;;;;;;;;;;;;15.76;60.34;100658.41;5014225;28;1206;-60
2021/10/30 09:37:51;;;;;;;;;;;;;;;15.78;60.82;100667.13;5031908;28;909;-60
2021/10/30 09:40:19;;;;;;;;;;;;;;;15.54;61.44;100664.22;5031877;28;818;-59
2021/10/30 09:43:15;;;;;;;;;;;;;;;15.38;61.38;100655.63;5031685;28;1914;-60
2021/10/30 09:45:46;;;;;;;;;;;;;;;15.44;62.48;100653.97;5016082;28;1301;-60
2021/10/30 09:48:15;;;;;;;;;;;;;;;15.19;63.39;100657.84;5032039;28;862;-60
2021/10/30 09:50:42;;;;;;;;;;;;;;;14.92;64.46;100663.25;5031787;28;1019;-60
2021/10/30 09:53:27;;;;;;;;;;;;;;;14.86;64.42;100657.34;5031662;28;822;-60
2021/10/30 09:55:55;;;;;;;;;;;;;;;14.93;64.38;100647.34;5032054;28;795;-60
2021/10/30 09:58:33;;;;;;;;;;;;;;;14.91;64.42;100644.97;5031792;28;922;-60
2021/10/30 10:01:04;;;;;;;;;;;;;;;14.98;64.25;100642.13;5031423;28;1938;-60
2021/10/30 10:03:30;;;;;;;;;;;;;;;15.13;63.01;100641.97;5031610;28;873;-60
2021/10/30 10:05:56;;;;;;;;;;;;;;;15.26;62.89;100641.03;5031587;28;818;-60
2021/10/30 10:08:24;;;;;;;;;;;;;;;15.32;62.68;100635.81;5031768;28;898;-60
2021/10/30 10:10:53;;;;;;;;;;;;;;;15.25;62.92;100631.09;5031500;28;819;-60
2021/10/30 10:13:20;;;;;;;;;;;;;;;15.21;62.66;100629.56;5031368;28;823;-60
2021/10/30 10:15:47;;;;;;;;;;;;;;;15.00;62.60;100631.38;5031475;28;870;-60
2021/10/30 10:18:14;;;;;;;;;;;;;;;14.80;63.88;100627.56;5031265;28;1218;-60
2021/10/30 10:20:41;;;;;;;;;;;;;;;14.55;64.31;100622.19;5031419;28;858;-60
2021/10/30 10:23:08;;;;;;;;;;;;;;;14.55;64.57;100623.03;5013567;28;2196;-60
2021/10/30 10:25:35;;;;;;;;;;;;;;;14.69;64.65;100619.31;5032386;28;878;-60
2021/10/30 10:28:21;;;;;;;;;;;;;;;14.81;63.95;100612.47;5035585;28;802;-60
2021/10/30 10:31:10;;;;;;;;;;;;;;;14.85;63.58;100614.00;5035363;28;807;-60
2021/10/30 10:33:38;;;;;;;;;;;;;;;14.83;63.82;100610.03;5024929;28;1725;-60
2021/10/30 10:36:14;;;;;;;;;;;;;;;14.71;64.16;100603.00;5035229;28;841;-60
2021/10/30 10:38:59;;;;;;;;;;;;;;;14.46;64.79;100603.19;5035213;28;893;-60
2021/10/30 10:41:48;;;;;;;;;;;;;;;14.30;65.44;100609.28;5035293;28;1893;-60
2021/10/30 10:44:23;;;;;;;;;;;;;;;14.31;65.15;100602.50;5035150;28;874;-60
2021/10/30 10:46:50;;;;;;;;;;;;;;;14.48;64.63;100601.56;5035108;28;826;-60
2021/10/30 10:49:29;;;;;;;;;;;;;;;14.65;64.35;100599.09;5034900;28;899;-60
2021/10/30 10:52:08;;;;;;;;;;;;;;;14.78;63.74;100602.94;5035314;28;870;-60
2021/10/30 10:54:53;;;;;;;;;;;;;;;14.85;63.04;100594.53;5035151;28;830;-60
2021/10/30 10:57:24;;;;;;;;;;;;;;;14.89;63.26;100586.94;5034900;28;818;-60
2021/10/30 11:00:00;;;;;;;;;;;;;;;14.98;62.52;100585.63;5034884;28;897;-60
2021/10/30 11:02:31;;;;;;;;;;;;;;;15.20;62.22;100581.44;5034750;28;1893;-60
2021/10/30 11:05:13;;;;;;;;;;;;;;;15.27;61.91;100572.97;5034728;28;850;-60
2021/10/30 11:07:51;;;;;;;;;;;;;;;15.36;61.89;100569.69;5035038;28;838;-60
2021/10/30 11:10:23;;;;;;;;;;;;;;;15.56;61.53;100569.84;5034563;28;814;-60
2021/10/30 11:13:09;;;;;;;;;;;;;;;15.75;61.10;100571.22;5034455;28;922;-60
2021/10/30 11:15:43;;;;;;;;;;;;;;;15.69;59.89;100567.28;5034465;28;872;-60
2021/10/30 11:18:19;;;;;;;;;;;;;;;15.70;59.00;100561.31;5034659;28;1227;-60
2021/10/30 11:20:48;;;;;;;;;;;;;;;15.75;58.20;100560.06;5017016;28;854;-60
2021/10/30 11:23:35;;;;;;;;;;;;;;;15.68;58.55;100560.94;5034336;28;1910;-60
2021/10/30 11:26:15;;;;;;;;;;;;;;;15.64;58.35;100549.06;5020538;28;1347;-60
2021/10/30 11:28:42;;;;;;;;;;;;;;;15.82;57.83;100550.81;5034357;28;803;-60
2021/10/30 11:31:13;;;;;;;;;;;;;;;15.86;56.98;100548.78;5034360;28;807;-60
2021/10/30 11:33:40;;;;;;;;;;;;;;;15.95;57.12;100549.03;5034162;28;846;-60
2021/10/30 11:36:08;;;;;;;;;;;;;;;16.12;57.03;100547.19;5034140;28;815;-60
2021/10/30 11:38:35;;;;;;;;;;;;;;;16.27;56.46;100548.50;5032988;28;870;-60
2021/10/30 11:41:15;;;;;;;;;;;;;;;16.03;56.45;100553.28;5034012;28;1951;-60
2021/10/30 11:43:42;;;;;;;;;;;;;;;15.54;56.94;100540.84;5034690;28;763;-60
2021/10/30 11:46:10;;;;;;;;;;;;;;;15.28;57.37;100538.38;5034086;28;826;-60
2021/10/30 11:48:41;;;;;;;;;;;;;;;15.36;57.76;100541.06;5034179;28;828;-60
2021/10/30 11:51:14;;;;;;;;;;;;;;;15.27;57.15;100545.13;5033930;28;783;-60
2021/10/30 11:53:43;;;;;;;;;;;;;;;15.08;58.24;100545.75;5033867;28;882;-60
2021/10/30 11:56:13;;;;;;;;;;;;;;;14.86;58.58;100554.34;5033833;28;826;-60
2021/10/30 11:58:47;;;;;;;;;;;;;;;14.66;59.10;100547.81;5033699;28;868;-60
2021/10/30 12:01:33;;;;;;;;;;;;;;;14.46;59.56;100556.69;5033782;28;1890;-60
2021/10/30 12:04:03;;;;;;;;;;;;;;;14.29;60.09;100546.50;5033988;28;846;-60
2021/10/30 12:06:30;;;;;;;;;;;;;;;14.18;60.16;100554.16;5033963;28;862;-60
2021/10/30 12:08:57;;;;;;;;;;;;;;;14.22;60.25;100555.69;5033643;28;898;-60
2021/10/30 12:11:25;;;;;;;;;;;;;;;14.36;60.20;100554.81;5033504;28;886;-60
2021/10/30 12:13:54;;;;;;;;;;;;;;;14.54;59.90;100553.84;5033456;28;831;-60
2021/10/30 12:16:21;;;;;;;;;;;;;;;14.53;59.21;100547.50;5015702;28;1293;-60
2021/10/30 12:18:47;;;;;;;;;;;;;;;14.55;59.25;100555.44;5033171;28;1336;-60
2021/10/30 12:21:14;;;;;;;;;;;;;;;14.57;59.06;100547.50;5033572;28;1977;-60
2021/10/30 12:23:59;;;;;;;;;;;;;;;14.59;58.92;100540.31;5033266;28;835;-60
2021/10/30 12:26:26;;;;;;;;;;;;;;;14.59;58.99;100545.88;5033418;28;791;-60
2021/10/30 12:28:53;;;;;;;;;;;;;;;14.49;59.05;100546.75;5033310;28;899;-60
2021/10/30 12:31:30;;;;;;;;;;;;;;;14.31;59.45;100549.66;5033420;28;811;-60
2021/10/30 12:33:58;;;;;;;;;;;;;;;14.19;59.97;100550.16;5033366;28;846;-60
2021/10/30 12:36:31;;;;;;;;;;;;;;;14.21;59.97;100548.56;5033216;28;871;-60
2021/10/30 12:38:58;;;;;;;;;;;;;;;14.20;59.35;100546.19;5033006;28;822;-60
2021/10/30 12:41:29;;;;;;;;;;;;;;;14.14;58.91;100550.59;5032774;28;1893;-60
2021/10/30 12:43:59;;;;;;;;;;;;;;;14.13;58.91;100547.03;5033184;28;846;-60
2021/10/30 12:46:25;;;;;;;;;;;;;;;14.24;58.72;100538.63;5032962;28;846;-60
2021/10/30 12:48:52;;;;;;;;;;;;;;;14.44;58.62;100538.84;5032414;28;830;-60
2021/10/30 12:51:24;;;;;;;;;;;;;;;14.50;58.05;100542.75;5032687;28;964;-60
2021/10/30 12:54:00;;;;;;;;;;;;;;;14.53;57.63;100546.69;5032584;28;935;-60
2021/10/30 12:56:26;;;;;;;;;;;;;;;14.59;57.71;100545.09;5032649;28;894;-60
2021/10/30 12:58:59;;;;;;;;;;;;;;;14.69;57.44;100541.41;5032599;28;811;-60
2021/10/30 13:01:26;;;;;;;;;;;;;;;14.72;57.29;100548.16;5032959;28;1890;-60
2021/10/30 13:04:10;;;;;;;;;;;;;;;14.73;57.26;100544.97;5032660;28;795;-60
2021/10/30 13:06:38;;;;;;;;;;;;;;;14.65;57.21;100546.22;5014638;28;1327;-60
2021/10/30 13:09:09;;;;;;;;;;;;;;;14.53;57.17;100553.06;5032450;28;857;-60
2021/10/30 13:11:36;;;;;;;;;;;;;;;14.38;56.92;100543.25;5032156;28;890;-60
2021/10/30 13:14:03;;;;;;;;;;;;;;;14.28;57.12;100542.94;5032335;28;877;-60